プラハ の空港の天気 - METARとTAF

ルズィニエ国際空港(プラハ) ( LKPR / PRG ) - チェコ プラハ
飛行場実況気象(Metar)
観測時間06/23 03:33 CEST (06/23 01:33 UTC)
風向・風速西北西 3m/s
視程10km以上
天気現象
全天の4割程度の雲 雲底高度 180m
全天の8割程度の雲 雲底高度 1370m
気温17℃
湿度94%
気圧1012hPa
METARLKPR 230133Z 30006KT 260V320 9999 TS SCT006 BKN045CB 17/16 Q1012 RMK REG QNH 1006
過去の天気等 Google飛行場航空写真 Wunderground天気予報

過去48時間のMETAR

飛行場予報(TAF)
発表時間: 6/23 01:00 CEST (6/22 23:00 UTC)
予報対象時間: 23日2時 CEST ~ 24日8時 CEST
風向・風速西南西 6m/s
視程10km以上
全天の4割程度の雲 雲底高度 1,220m
23日2時 CEST ~ 23日11時 CEST に一時的に
視程7,000m
天気現象しゅう雨
全天の8割程度の雲 雲底高度 910m
23日2時 CEST ~ 23日6時 CEST に 確率 30% で一時的に
風向・風速西北西 13m/s 瞬間風速 21m/s
視程3,000m
天気現象雷雨
全天の8割程度の積乱雲 雲底高度 910m
23日8時 CEST ~ 23日10時 CEST に徐々に
風向・風速西北西 7m/s
23日22時 CEST ~ 23日24時 CEST に徐々に
風向・風速西南西 5m/s
視程10km以上
なし
TAF LKPR 222300Z 2300/2406 24012KT 9999 SCT040
TEMPO 2300/2309 7000 SHRA BKN030
PROB30 TEMPO 2300/2304 30026G40KT 3000 TSRA BKN030CB
BECMG 2306/2308 30014KT
BECMG 2320/2322 24010KT CAVOK